Tropical Cyclones
[Index]
Main Index Home Page Stock Weather Photos Extreme Storms Discussion Storm News and Storm Chasing Reports Tropical Cyclones / Hurricanes / Typhoons Weather Data and Links Wild Fires / Bushfires Weather Observation Techniques Weather Picture Catalogue Tornado Pictures and Reports Stock Video Footage and DVDs for sale
Season 1996-1997 Tropical Cyclone PHIL Track Map
Season 1996-1997 Summaries: [BoM-AU] [JTWC-AU] [JTWC-SIO] [JTWC-SPAC] [JTWC-SH]
<<- Previous TC | JTWC 1996-1997 Season | Next TC ->>

click for intensity scale information  Lat/long Grid: Show Hide

 Date Labels: Show Hide

Joint Typhoon Warning Centre Cyclone Data

Name: PHIL

22 Dec 1996 06:00 UTC to 16 Jan 1997 12:00 UTC

    date/time    lat    long     hPa   cat  kts
1996-12-22 06   10.0   136.0                  20          
1996-12-22 12   10.5   136.3                  20          
1996-12-22 18   10.9   136.8                  20          
1996-12-23 00   11.3   137.3                  20          
1996-12-23 06   11.7   137.8                  25          
1996-12-23 12   11.9   138.2                  30          
1996-12-23 18   12.1   138.5                  35          
1996-12-24 00   12.3   138.8                  35          
1996-12-24 06   12.4   139.1                  35          
1996-12-24 12   12.5   139.3                  35          
1996-12-24 18   12.8   139.5                  35          
1996-12-25 00   13.2   139.3            1     40          
1996-12-25 06   13.4   138.9            1     45          
1996-12-25 12   13.5   138.3            1     50          
1996-12-25 18   13.5   137.6            2     55          
1996-12-26 00   13.4   136.8            2     55          
1996-12-26 06   13.3   135.8            1     50          
1996-12-26 12   13.5   134.2            1     50          
1996-12-26 18   13.6   132.7            1     45          
1996-12-27 00   13.8   130.8            1     40          
1996-12-27 06   14.0   128.9            1     40          
1996-12-27 12   14.6   127.3            1     45          
1996-12-27 18   15.0   125.8            1     45          
1996-12-28 00   15.2   124.4            1     50          
1996-12-28 06   15.2   123.3            2     55          
1996-12-28 12   15.2   122.0            2     65          
1996-12-28 18   15.4   121.3            3     75          
1996-12-29 00   15.4   120.4            3     80          
1996-12-29 06   15.6   119.6            3     85          
1996-12-29 12   15.9   118.9            3     80          
1996-12-29 18   16.3   118.5            3     80          
1996-12-30 00   16.7   118.0            3     85          
1996-12-30 06   17.0   117.4            3     80          
1996-12-30 12   17.1   117.0            2     70          
1996-12-30 18   17.2   116.6            2     60          
1996-12-31 00   17.4   116.2            2     55          
1996-12-31 06   17.5   115.7            1     50          
1996-12-31 12   17.6   115.0            1     45          
1996-12-31 18   17.6   114.1            1     40          
1997-01-01 00   17.6   113.2            1     40          
1997-01-01 06   17.5   112.2                  35          
1997-01-01 12   17.3   111.2                  35          
1997-01-01 18   17.1   110.2                  35          
1997-01-02 00   16.9   109.3                  35          
1997-01-02 06   17.0   108.4                  35          
1997-01-02 12   17.4   107.3                  30          
1997-01-02 18   17.8   106.1                  25          
1997-01-03 00   18.1   105.0                  25          
1997-01-03 06   18.3   103.6                  25          
1997-01-03 12   18.2   102.1                  25          
1997-01-03 18   17.9   100.6                  25          
1997-01-04 00   17.6    99.1                  20          
1997-01-04 06   17.0    97.7                  15          
1997-01-04 12   16.3    96.3                  15          
1997-01-04 18   15.6    95.1                  15          
1997-01-05 00   15.0    93.9                  15          
1997-01-05 06   14.8    92.4                  15          
1997-01-05 12   14.7    90.7                  15          
1997-01-05 18   14.6    89.1                  15          
1997-01-06 00   14.5    87.4                  20          
1997-01-06 06   14.4    85.9                  20          
1997-01-06 12   14.4    84.5                  20          
1997-01-06 18   14.4    83.1                  20          
1997-01-07 00   14.5    81.8                  20          
1997-01-07 06   14.8    80.7                  20          
1997-01-07 12   15.1    79.8                  25          
1997-01-07 18   15.5    79.2                  25          
1997-01-08 00   16.1    79.0                  25          
1997-01-08 06   17.0    78.8                  25          
1997-01-08 12   17.4    78.3                  25          
1997-01-08 18   17.5    77.9                  30          
1997-01-09 00   17.6    77.7                  30          
1997-01-09 06   17.7    77.7                  35          
1997-01-09 12   17.8    77.8            1     40          
1997-01-09 18   17.8    78.1            1     45          
1997-01-10 00   17.7    78.6            1     45          
1997-01-10 06   17.6    79.1            1     40          
1997-01-10 12   17.6    79.6            1     40          
1997-01-10 18   17.6    80.0            1     45          
1997-01-11 00   17.6    80.3            1     45          
1997-01-11 06   17.6    80.6            1     45          
1997-01-11 12   17.6    80.9            1     40          
1997-01-11 18   17.4    81.2            1     40          
1997-01-12 00   17.1    81.0                  35          
1997-01-12 06   17.0    80.8                  30          
1997-01-12 12   17.0    80.6                  30          
1997-01-12 18   17.0    80.4                  25          
1997-01-13 00   17.0    80.0                  25          
1997-01-13 06   17.1    79.7                  25          
1997-01-13 12   17.3    79.5                  25          
1997-01-13 18   17.5    79.3                  25          
1997-01-14 00   17.8    79.2                  20          
1997-01-14 06   18.1    78.8                  20          
1997-01-14 12   18.3    78.3                  20          
1997-01-14 18   18.4    77.8                  20          
1997-01-15 00   18.6    77.0                  20          
1997-01-15 06   18.9    76.1                  20          
1997-01-15 12   19.2    75.1                  20          
1997-01-15 18   19.4    74.2                  20          
1997-01-16 00   19.5    73.3                  20          
1997-01-16 06   19.5    72.3                  20          
1997-01-16 12   19.5    71.4                  20          
Winds are 1-min average.

Tropical cyclone tracks developed by Michael Bath using data from the Joint Typhoon Warning Centre Best Tracks and Google Maps.


[Australian Severe Weather index] [Copyright Notice] [Email Contacts] [Search This Site] [Privacy Policy]
Document: tropical_cyclone_phil.htm Updated: 18 September 2016